sensor_id;sensor_type;location;lat;lon;timestamp;P1;durP1;ratioP1;P2;durP2;ratioP2
34836;SDS011;21053;50.848;4.652;2023-11-19T00:00:07;237.23;;;213.55;;
34836;SDS011;21053;50.848;4.652;2023-11-19T00:02:40;204.13;;;183.27;;
34836;SDS011;21053;50.848;4.652;2023-11-19T00:05:08;206.70;;;186.15;;
34836;SDS011;21053;50.848;4.652;2023-11-19T00:07:43;201.85;;;181.38;;
34836;SDS011;21053;50.848;4.652;2023-11-19T00:10:17;231.32;;;207.73;;
34836;SDS011;21053;50.848;4.652;2023-11-19T00:12:47;192.98;;;159.75;;
34836;SDS011;21053;50.848;4.652;2023-11-19T00:15:14;255.50;;;229.48;;
34836;SDS011;21053;50.848;4.652;2023-11-19T00:17:44;221.50;;;199.05;;
34836;SDS011;21053;50.848;4.652;2023-11-19T00:20:14;219.75;;;198.10;;
34836;SDS011;21053;50.848;4.652;2023-11-19T00:22:42;218.90;;;197.20;;
34836;SDS011;21053;50.848;4.652;2023-11-19T00:27:39;192.98;;;173.20;;
34836;SDS011;21053;50.848;4.652;2023-11-19T00:30:05;251.05;;;225.32;;
34836;SDS011;21053;50.848;4.652;2023-11-19T00:32:36;253.68;;;228.43;;
34836;SDS011;21053;50.848;4.652;2023-11-19T00:35:05;227.60;;;205.02;;
34836;SDS011;21053;50.848;4.652;2023-11-19T00:37:35;241.70;;;217.00;;
34836;SDS011;21053;50.848;4.652;2023-11-19T00:40:03;232.43;;;209.20;;
34836;SDS011;21053;50.848;4.652;2023-11-19T00:42:33;175.35;;;158.10;;
34836;SDS011;21053;50.848;4.652;2023-11-19T00:45:01;208.77;;;187.90;;
34836;SDS011;21053;50.848;4.652;2023-11-19T00:47:30;219.05;;;196.00;;
34836;SDS011;21053;50.848;4.652;2023-11-19T00:52:26;179.57;;;161.27;;
34836;SDS011;21053;50.848;4.652;2023-11-19T00:57:22;242.77;;;218.50;;
34836;SDS011;21053;50.848;4.652;2023-11-19T01:02:20;208.48;;;188.20;;
34836;SDS011;21053;50.848;4.652;2023-11-19T01:07:18;231.63;;;209.13;;
34836;SDS011;21053;50.848;4.652;2023-11-19T01:09:44;240.20;;;216.48;;
34836;SDS011;21053;50.848;4.652;2023-11-19T01:12:11;216.13;;;194.43;;
34836;SDS011;21053;50.848;4.652;2023-11-19T01:17:07;257.50;;;231.57;;
34836;SDS011;21053;50.848;4.652;2023-11-19T01:19:34;221.32;;;199.50;;
34836;SDS011;21053;50.848;4.652;2023-11-19T01:22:01;253.77;;;228.73;;
34836;SDS011;21053;50.848;4.652;2023-11-19T01:24:28;222.95;;;199.77;;
34836;SDS011;21053;50.848;4.652;2023-11-19T01:26:53;259.00;;;233.18;;
34836;SDS011;21053;50.848;4.652;2023-11-19T01:29:22;229.93;;;206.82;;
34836;SDS011;21053;50.848;4.652;2023-11-19T01:34:18;182.20;;;163.85;;
34836;SDS011;21053;50.848;4.652;2023-11-19T01:39:15;222.35;;;200.65;;
34836;SDS011;21053;50.848;4.652;2023-11-19T01:44:16;226.13;;;204.35;;
34836;SDS011;21053;50.848;4.652;2023-11-19T01:49:15;239.93;;;216.68;;
34836;SDS011;21053;50.848;4.652;2023-11-19T01:51:45;216.05;;;195.02;;
34836;SDS011;21053;50.848;4.652;2023-11-19T01:56:44;237.00;;;214.30;;
34836;SDS011;21053;50.848;4.652;2023-11-19T01:59:10;219.88;;;198.40;;
34836;SDS011;21053;50.848;4.652;2023-11-19T02:01:40;243.93;;;221.15;;
34836;SDS011;21053;50.848;4.652;2023-11-19T02:06:41;217.90;;;196.68;;
34836;SDS011;21053;50.848;4.652;2023-11-19T02:09:08;235.00;;;212.23;;
34836;SDS011;21053;50.848;4.652;2023-11-19T02:14:08;251.10;;;227.13;;
34836;SDS011;21053;50.848;4.652;2023-11-19T02:19:06;239.50;;;217.30;;
34836;SDS011;21053;50.848;4.652;2023-11-19T02:21:34;256.48;;;232.80;;
34836;SDS011;21053;50.848;4.652;2023-11-19T02:24:06;284.40;;;256.77;;
34836;SDS011;21053;50.848;4.652;2023-11-19T02:29:36;317.38;;;287.95;;
34836;SDS011;21053;50.848;4.652;2023-11-19T02:32:05;278.60;;;252.80;;
34836;SDS011;21053;50.848;4.652;2023-11-19T02:34:34;261.35;;;237.00;;
34836;SDS011;21053;50.848;4.652;2023-11-19T02:37:03;279.80;;;253.98;;
34836;SDS011;21053;50.848;4.652;2023-11-19T02:39:32;259.83;;;235.55;;
34836;SDS011;21053;50.848;4.652;2023-11-19T02:41:58;208.32;;;188.00;;
34836;SDS011;21053;50.848;4.652;2023-11-19T02:44:28;281.95;;;256.85;;
34836;SDS011;21053;50.848;4.652;2023-11-19T02:46:58;275.08;;;250.50;;
34836;SDS011;21053;50.848;4.652;2023-11-19T02:49:24;265.58;;;241.40;;
34836;SDS011;21053;50.848;4.652;2023-11-19T02:51:53;258.45;;;235.32;;
34836;SDS011;21053;50.848;4.652;2023-11-19T02:56:55;280.67;;;254.82;;
34836;SDS011;21053;50.848;4.652;2023-11-19T02:59:26;277.17;;;251.38;;
34836;SDS011;21053;50.848;4.652;2023-11-19T03:01:57;262.50;;;238.07;;
34836;SDS011;21053;50.848;4.652;2023-11-19T03:04:27;297.25;;;269.10;;
34836;SDS011;21053;50.848;4.652;2023-11-19T03:06:59;265.67;;;240.68;;
34836;SDS011;21053;50.848;4.652;2023-11-19T03:09:25;244.18;;;221.80;;
34836;SDS011;21053;50.848;4.652;2023-11-19T03:11:53;222.63;;;201.82;;
34836;SDS011;21053;50.848;4.652;2023-11-19T03:14:18;261.30;;;237.68;;
34836;SDS011;21053;50.848;4.652;2023-11-19T03:16:48;212.23;;;190.63;;
34836;SDS011;21053;50.848;4.652;2023-11-19T03:19:14;225.68;;;203.20;;
34836;SDS011;21053;50.848;4.652;2023-11-19T03:21:41;185.23;;;168.20;;
34836;SDS011;21053;50.848;4.652;2023-11-19T03:24:13;226.32;;;206.13;;
34836;SDS011;21053;50.848;4.652;2023-11-19T03:26:41;229.75;;;209.48;;
34836;SDS011;21053;50.848;4.652;2023-11-19T03:29:08;217.32;;;197.60;;
34836;SDS011;21053;50.848;4.652;2023-11-19T03:31:34;221.20;;;201.85;;
34836;SDS011;21053;50.848;4.652;2023-11-19T03:36:32;242.68;;;221.68;;
34836;SDS011;21053;50.848;4.652;2023-11-19T03:38:58;253.25;;;230.50;;
34836;SDS011;21053;50.848;4.652;2023-11-19T03:41:27;214.85;;;196.07;;
34836;SDS011;21053;50.848;4.652;2023-11-19T03:43:55;257.60;;;235.45;;
34836;SDS011;21053;50.848;4.652;2023-11-19T03:46:21;247.07;;;225.48;;
34836;SDS011;21053;50.848;4.652;2023-11-19T03:48:50;228.70;;;208.40;;
34836;SDS011;21053;50.848;4.652;2023-11-19T03:56:13;241.70;;;220.80;;
34836;SDS011;21053;50.848;4.652;2023-11-19T03:58:39;274.92;;;251.18;;
34836;SDS011;21053;50.848;4.652;2023-11-19T04:01:10;251.27;;;229.02;;
34836;SDS011;21053;50.848;4.652;2023-11-19T04:03:42;276.70;;;252.20;;
34836;SDS011;21053;50.848;4.652;2023-11-19T04:06:07;284.92;;;259.98;;
34836;SDS011;21053;50.848;4.652;2023-11-19T04:08:35;284.95;;;259.92;;
34836;SDS011;21053;50.848;4.652;2023-11-19T04:11:04;283.88;;;257.65;;
34836;SDS011;21053;50.848;4.652;2023-11-19T04:13:33;277.55;;;253.15;;
34836;SDS011;21053;50.848;4.652;2023-11-19T04:15:59;256.88;;;234.15;;
34836;SDS011;21053;50.848;4.652;2023-11-19T04:20:56;296.60;;;269.73;;
34836;SDS011;21053;50.848;4.652;2023-11-19T04:23:24;284.20;;;258.92;;
34836;SDS011;21053;50.848;4.652;2023-11-19T04:25:50;288.55;;;263.50;;
34836;SDS011;21053;50.848;4.652;2023-11-19T04:28:19;263.85;;;240.65;;
34836;SDS011;21053;50.848;4.652;2023-11-19T04:30:46;308.05;;;281.15;;
34836;SDS011;21053;50.848;4.652;2023-11-19T04:33:12;293.95;;;268.27;;
34836;SDS011;21053;50.848;4.652;2023-11-19T04:35:49;284.17;;;258.50;;
34836;SDS011;21053;50.848;4.652;2023-11-19T04:38:16;273.92;;;250.23;;
34836;SDS011;21053;50.848;4.652;2023-11-19T04:43:12;261.23;;;238.05;;
34836;SDS011;21053;50.848;4.652;2023-11-19T04:45:38;240.63;;;219.75;;
34836;SDS011;21053;50.848;4.652;2023-11-19T04:48:07;275.35;;;251.32;;
34836;SDS011;21053;50.848;4.652;2023-11-19T04:50:36;245.38;;;223.90;;
34836;SDS011;21053;50.848;4.652;2023-11-19T04:53:02;272.55;;;248.88;;
34836;SDS011;21053;50.848;4.652;2023-11-19T04:57:59;262.17;;;239.25;;
34836;SDS011;21053;50.848;4.652;2023-11-19T05:00:25;285.05;;;258.83;;
34836;SDS011;21053;50.848;4.652;2023-11-19T05:02:54;265.67;;;242.23;;
34836;SDS011;21053;50.848;4.652;2023-11-19T05:05:26;272.13;;;248.38;;
34836;SDS011;21053;50.848;4.652;2023-11-19T05:07:55;258.42;;;235.38;;
34836;SDS011;21053;50.848;4.652;2023-11-19T05:12:51;219.65;;;200.07;;
34836;SDS011;21053;50.848;4.652;2023-11-19T05:15:19;251.32;;;229.05;;
34836;SDS011;21053;50.848;4.652;2023-11-19T05:20:14;227.45;;;207.48;;
34836;SDS011;21053;50.848;4.652;2023-11-19T05:22:43;230.32;;;210.32;;
34836;SDS011;21053;50.848;4.652;2023-11-19T05:25:12;236.73;;;215.13;;
34836;SDS011;21053;50.848;4.652;2023-11-19T05:27:41;222.50;;;202.82;;
34836;SDS011;21053;50.848;4.652;2023-11-19T05:30:07;265.20;;;241.82;;
34836;SDS011;21053;50.848;4.652;2023-11-19T05:32:37;241.70;;;220.20;;
34836;SDS011;21053;50.848;4.652;2023-11-19T05:37:35;232.27;;;209.43;;
34836;SDS011;21053;50.848;4.652;2023-11-19T05:42:38;271.92;;;247.02;;
34836;SDS011;21053;50.848;4.652;2023-11-19T05:45:03;271.20;;;245.52;;
34836;SDS011;21053;50.848;4.652;2023-11-19T05:47:32;271.45;;;246.95;;
34836;SDS011;21053;50.848;4.652;2023-11-19T05:49:58;283.75;;;257.98;;
34836;SDS011;21053;50.848;4.652;2023-11-19T05:52:24;306.27;;;278.58;;
34836;SDS011;21053;50.848;4.652;2023-11-19T05:57:21;281.20;;;253.85;;
34836;SDS011;21053;50.848;4.652;2023-11-19T05:59:53;280.67;;;254.65;;
34836;SDS011;21053;50.848;4.652;2023-11-19T06:02:20;279.30;;;253.52;;
34836;SDS011;21053;50.848;4.652;2023-11-19T06:07:16;287.27;;;260.25;;
34836;SDS011;21053;50.848;4.652;2023-11-19T06:12:13;261.20;;;236.75;;
34836;SDS011;21053;50.848;4.652;2023-11-19T06:17:09;293.83;;;266.20;;
34836;SDS011;21053;50.848;4.652;2023-11-19T06:22:08;363.98;;;330.15;;
34836;SDS011;21053;50.848;4.652;2023-11-19T06:24:35;312.95;;;283.73;;
34836;SDS011;21053;50.848;4.652;2023-11-19T06:27:02;344.05;;;312.33;;
34836;SDS011;21053;50.848;4.652;2023-11-19T06:29:31;300.50;;;272.50;;
34836;SDS011;21053;50.848;4.652;2023-11-19T06:31:59;331.20;;;300.70;;
34836;SDS011;21053;50.848;4.652;2023-11-19T06:34:25;321.45;;;291.17;;
34836;SDS011;21053;50.848;4.652;2023-11-19T06:36:53;308.55;;;277.55;;
34836;SDS011;21053;50.848;4.652;2023-11-19T06:41:51;318.23;;;288.15;;
34836;SDS011;21053;50.848;4.652;2023-11-19T06:44:17;315.20;;;285.58;;
34836;SDS011;21053;50.848;4.652;2023-11-19T06:46:46;328.60;;;298.00;;
34836;SDS011;21053;50.848;4.652;2023-11-19T06:49:19;324.02;;;293.73;;
34836;SDS011;21053;50.848;4.652;2023-11-19T06:51:44;333.98;;;302.70;;
34836;SDS011;21053;50.848;4.652;2023-11-19T06:54:11;340.20;;;307.17;;
34836;SDS011;21053;50.848;4.652;2023-11-19T06:56:40;345.13;;;310.80;;
34836;SDS011;21053;50.848;4.652;2023-11-19T06:59:09;357.10;;;324.10;;
34836;SDS011;21053;50.848;4.652;2023-11-19T07:01:35;319.17;;;288.05;;
34836;SDS011;21053;50.848;4.652;2023-11-19T07:04:01;305.60;;;276.77;;
34836;SDS011;21053;50.848;4.652;2023-11-19T07:06:37;370.05;;;335.48;;
34836;SDS011;21053;50.848;4.652;2023-11-19T07:09:10;296.88;;;268.45;;
34836;SDS011;21053;50.848;4.652;2023-11-19T07:11:38;341.17;;;308.02;;
34836;SDS011;21053;50.848;4.652;2023-11-19T07:14:05;325.40;;;294.75;;
34836;SDS011;21053;50.848;4.652;2023-11-19T07:16:35;310.63;;;281.67;;
34836;SDS011;21053;50.848;4.652;2023-11-19T07:21:33;319.10;;;288.92;;
34836;SDS011;21053;50.848;4.652;2023-11-19T07:24:02;372.85;;;337.85;;
34836;SDS011;21053;50.848;4.652;2023-11-19T07:29:00;342.85;;;310.50;;
34836;SDS011;21053;50.848;4.652;2023-11-19T07:31:28;329.98;;;298.42;;
34836;SDS011;21053;50.848;4.652;2023-11-19T07:33:55;339.13;;;306.67;;
34836;SDS011;21053;50.848;4.652;2023-11-19T07:36:23;319.77;;;288.75;;
34836;SDS011;21053;50.848;4.652;2023-11-19T07:38:50;321.77;;;291.50;;
34836;SDS011;21053;50.848;4.652;2023-11-19T07:41:18;322.90;;;292.35;;
34836;SDS011;21053;50.848;4.652;2023-11-19T07:43:47;365.85;;;331.40;;
34836;SDS011;21053;50.848;4.652;2023-11-19T07:46:15;345.58;;;312.00;;
34836;SDS011;21053;50.848;4.652;2023-11-19T07:51:13;371.30;;;336.55;;
34836;SDS011;21053;50.848;4.652;2023-11-19T07:53:39;327.85;;;296.55;;
34836;SDS011;21053;50.848;4.652;2023-11-19T07:56:08;336.17;;;304.05;;
34836;SDS011;21053;50.848;4.652;2023-11-19T07:58:35;375.73;;;339.92;;
34836;SDS011;21053;50.848;4.652;2023-11-19T08:01:02;337.75;;;306.40;;
34836;SDS011;21053;50.848;4.652;2023-11-19T08:03:34;359.33;;;326.05;;
34836;SDS011;21053;50.848;4.652;2023-11-19T08:06:01;332.20;;;301.08;;
34836;SDS011;21053;50.848;4.652;2023-11-19T08:11:01;313.17;;;282.13;;
34836;SDS011;21053;50.848;4.652;2023-11-19T08:13:30;354.83;;;322.17;;
34836;SDS011;21053;50.848;4.652;2023-11-19T08:15:57;316.15;;;285.90;;
34836;SDS011;21053;50.848;4.652;2023-11-19T08:18:23;346.58;;;314.13;;
34836;SDS011;21053;50.848;4.652;2023-11-19T08:20:51;355.55;;;322.25;;
34836;SDS011;21053;50.848;4.652;2023-11-19T08:23:20;313.08;;;283.42;;
34836;SDS011;21053;50.848;4.652;2023-11-19T08:25:47;285.85;;;258.15;;
34836;SDS011;21053;50.848;4.652;2023-11-19T08:28:15;328.50;;;297.42;;
34836;SDS011;21053;50.848;4.652;2023-11-19T08:30:42;296.88;;;269.08;;
34836;SDS011;21053;50.848;4.652;2023-11-19T08:33:10;315.63;;;285.95;;
34836;SDS011;21053;50.848;4.652;2023-11-19T08:35:37;314.13;;;285.13;;
34836;SDS011;21053;50.848;4.652;2023-11-19T08:40:33;319.35;;;287.48;;
34836;SDS011;21053;50.848;4.652;2023-11-19T08:42:58;329.38;;;299.23;;
34836;SDS011;21053;50.848;4.652;2023-11-19T08:45:26;319.13;;;290.20;;
34836;SDS011;21053;50.848;4.652;2023-11-19T08:47:52;307.30;;;278.90;;
34836;SDS011;21053;50.848;4.652;2023-11-19T08:50:17;305.42;;;277.77;;
34836;SDS011;21053;50.848;4.652;2023-11-19T08:52:45;304.67;;;276.48;;
34836;SDS011;21053;50.848;4.652;2023-11-19T08:55:11;296.67;;;268.42;;
34836;SDS011;21053;50.848;4.652;2023-11-19T08:57:40;359.88;;;325.75;;
34836;SDS011;21053;50.848;4.652;2023-11-19T09:00:07;311.27;;;282.80;;
34836;SDS011;21053;50.848;4.652;2023-11-19T09:02:37;296.88;;;268.95;;
34836;SDS011;21053;50.848;4.652;2023-11-19T09:05:04;304.05;;;276.17;;
34836;SDS011;21053;50.848;4.652;2023-11-19T09:07:32;281.42;;;255.38;;
34836;SDS011;21053;50.848;4.652;2023-11-19T09:09:58;329.83;;;299.75;;
34836;SDS011;21053;50.848;4.652;2023-11-19T09:12:24;353.98;;;321.40;;
34836;SDS011;21053;50.848;4.652;2023-11-19T09:14:50;348.40;;;316.33;;
34836;SDS011;21053;50.848;4.652;2023-11-19T09:17:18;335.63;;;304.52;;
34836;SDS011;21053;50.848;4.652;2023-11-19T09:19:44;298.00;;;270.38;;
34836;SDS011;21053;50.848;4.652;2023-11-19T09:22:11;298.10;;;271.13;;
34836;SDS011;21053;50.848;4.652;2023-11-19T09:24:37;295.88;;;267.38;;
34836;SDS011;21053;50.848;4.652;2023-11-19T09:27:04;273.17;;;247.85;;
34836;SDS011;21053;50.848;4.652;2023-11-19T09:29:36;271.23;;;247.63;;
34836;SDS011;21053;50.848;4.652;2023-11-19T09:34:32;247.95;;;226.02;;
34836;SDS011;21053;50.848;4.652;2023-11-19T09:37:04;224.40;;;204.57;;
34836;SDS011;21053;50.848;4.652;2023-11-19T09:39:32;230.52;;;210.93;;
34836;SDS011;21053;50.848;4.652;2023-11-19T09:42:00;224.93;;;205.55;;
34836;SDS011;21053;50.848;4.652;2023-11-19T09:44:27;168.90;;;154.02;;
34836;SDS011;21053;50.848;4.652;2023-11-19T09:49:26;220.40;;;201.57;;
34836;SDS011;21053;50.848;4.652;2023-11-19T09:51:54;197.13;;;180.73;;
34836;SDS011;21053;50.848;4.652;2023-11-19T09:54:19;173.30;;;158.73;;
34836;SDS011;21053;50.848;4.652;2023-11-19T09:59:15;182.98;;;166.68;;
34836;SDS011;21053;50.848;4.652;2023-11-19T10:01:45;199.68;;;182.98;;
34836;SDS011;21053;50.848;4.652;2023-11-19T10:04:15;173.88;;;158.55;;
34836;SDS011;21053;50.848;4.652;2023-11-19T10:06:45;187.35;;;171.50;;
34836;SDS011;21053;50.848;4.652;2023-11-19T10:09:14;199.27;;;181.32;;
34836;SDS011;21053;50.848;4.652;2023-11-19T10:11:43;183.70;;;168.15;;
34836;SDS011;21053;50.848;4.652;2023-11-19T10:14:11;187.77;;;171.85;;
34836;SDS011;21053;50.848;4.652;2023-11-19T10:19:20;123.03;;;112.70;;
34836;SDS011;21053;50.848;4.652;2023-11-19T10:24:23;128.18;;;116.53;;
34836;SDS011;21053;50.848;4.652;2023-11-19T10:27:12;103.75;;;95.38;;
34836;SDS011;21053;50.848;4.652;2023-11-19T10:29:43;106.63;;;96.70;;
34836;SDS011;21053;50.848;4.652;2023-11-19T10:34:42;131.00;;;120.10;;
34836;SDS011;21053;50.848;4.652;2023-11-19T10:37:09;116.88;;;107.70;;
34836;SDS011;21053;50.848;4.652;2023-11-19T10:39:55;89.80;;;82.03;;
34836;SDS011;21053;50.848;4.652;2023-11-19T10:42:25;96.25;;;88.45;;
34836;SDS011;21053;50.848;4.652;2023-11-19T10:44:56;91.55;;;84.30;;
34836;SDS011;21053;50.848;4.652;2023-11-19T10:47:22;97.13;;;89.38;;
34836;SDS011;21053;50.848;4.652;2023-11-19T10:49:48;96.82;;;89.38;;
34836;SDS011;21053;50.848;4.652;2023-11-19T10:52:20;110.18;;;101.25;;
34836;SDS011;21053;50.848;4.652;2023-11-19T10:57:19;92.45;;;85.43;;
34836;SDS011;21053;50.848;4.652;2023-11-19T10:59:47;69.30;;;63.75;;
34836;SDS011;21053;50.848;4.652;2023-11-19T11:02:21;73.03;;;67.18;;
34836;SDS011;21053;50.848;4.652;2023-11-19T11:04:49;66.78;;;58.55;;
34836;SDS011;21053;50.848;4.652;2023-11-19T11:07:15;72.82;;;66.72;;
34836;SDS011;21053;50.848;4.652;2023-11-19T11:09:45;79.70;;;73.15;;
34836;SDS011;21053;50.848;4.652;2023-11-19T11:14:45;103.88;;;95.80;;
34836;SDS011;21053;50.848;4.652;2023-11-19T11:17:17;82.95;;;76.43;;
34836;SDS011;21053;50.848;4.652;2023-11-19T11:19:48;74.80;;;67.28;;
34836;SDS011;21053;50.848;4.652;2023-11-19T11:22:15;71.65;;;65.15;;
34836;SDS011;21053;50.848;4.652;2023-11-19T11:24:53;72.60;;;65.93;;
34836;SDS011;21053;50.848;4.652;2023-11-19T11:32:50;72.43;;;66.47;;
34836;SDS011;21053;50.848;4.652;2023-11-19T11:39:36;73.97;;;67.95;;
34836;SDS011;21053;50.848;4.652;2023-11-19T11:50:12;102.95;;;94.90;;
34836;SDS011;21053;50.848;4.652;2023-11-19T11:53:21;217.50;;;199.73;;
34836;SDS011;21053;50.848;4.652;2023-11-19T11:58:27;278.98;;;255.20;;
34836;SDS011;21053;50.848;4.652;2023-11-19T12:00:58;153.32;;;140.77;;
34836;SDS011;21053;50.848;4.652;2023-11-19T12:05:58;39.78;;;36.78;;
34836;SDS011;21053;50.848;4.652;2023-11-19T12:08:26;46.20;;;42.22;;
34836;SDS011;21053;50.848;4.652;2023-11-19T12:10:55;51.97;;;47.65;;
34836;SDS011;21053;50.848;4.652;2023-11-19T12:13:23;45.35;;;41.90;;
34836;SDS011;21053;50.848;4.652;2023-11-19T12:18:27;39.05;;;36.00;;
34836;SDS011;21053;50.848;4.652;2023-11-19T12:20:57;44.88;;;40.75;;
34836;SDS011;21053;50.848;4.652;2023-11-19T12:25:59;71.30;;;65.72;;
34836;SDS011;21053;50.848;4.652;2023-11-19T12:28:26;52.92;;;48.88;;
34836;SDS011;21053;50.848;4.652;2023-11-19T12:30:54;58.67;;;53.47;;
34836;SDS011;21053;50.848;4.652;2023-11-19T12:33:35;36.47;;;33.38;;
34836;SDS011;21053;50.848;4.652;2023-11-19T12:38:30;33.50;;;30.13;;
34836;SDS011;21053;50.848;4.652;2023-11-19T12:43:39;33.78;;;30.50;;
34836;SDS011;21053;50.848;4.652;2023-11-19T12:46:24;31.13;;;24.15;;
34836;SDS011;21053;50.848;4.652;2023-11-19T12:48:51;18.83;;;17.13;;
34836;SDS011;21053;50.848;4.652;2023-11-19T12:53:51;23.33;;;21.30;;
34836;SDS011;21053;50.848;4.652;2023-11-19T13:01:23;37.65;;;34.70;;
34836;SDS011;21053;50.848;4.652;2023-11-19T13:03:54;47.80;;;43.38;;
34836;SDS011;21053;50.848;4.652;2023-11-19T13:06:23;32.88;;;30.17;;
34836;SDS011;21053;50.848;4.652;2023-11-19T13:11:34;72.18;;;66.18;;
34836;SDS011;21053;50.848;4.652;2023-11-19T13:14:08;54.20;;;50.13;;
34836;SDS011;21053;50.848;4.652;2023-11-19T13:16:37;45.75;;;41.67;;
34836;SDS011;21053;50.848;4.652;2023-11-19T13:19:03;41.92;;;38.63;;
34836;SDS011;21053;50.848;4.652;2023-11-19T13:21:31;55.70;;;50.95;;
34836;SDS011;21053;50.848;4.652;2023-11-19T13:23:57;51.50;;;47.63;;
34836;SDS011;21053;50.848;4.652;2023-11-19T13:26:25;35.67;;;32.92;;
34836;SDS011;21053;50.848;4.652;2023-11-19T13:28:52;52.00;;;47.33;;
34836;SDS011;21053;50.848;4.652;2023-11-19T13:31:18;34.53;;;29.73;;
34836;SDS011;21053;50.848;4.652;2023-11-19T13:33:44;24.73;;;22.50;;
34836;SDS011;21053;50.848;4.652;2023-11-19T13:36:11;24.60;;;21.00;;
34836;SDS011;21053;50.848;4.652;2023-11-19T13:38:39;19.58;;;18.05;;
34836;SDS011;21053;50.848;4.652;2023-11-19T13:41:09;19.30;;;17.83;;
34836;SDS011;21053;50.848;4.652;2023-11-19T13:43:38;24.98;;;19.20;;
34836;SDS011;21053;50.848;4.652;2023-11-19T13:46:05;21.95;;;20.35;;
34836;SDS011;21053;50.848;4.652;2023-11-19T13:48:31;25.02;;;23.20;;
34836;SDS011;21053;50.848;4.652;2023-11-19T13:50:57;33.97;;;29.92;;
34836;SDS011;21053;50.848;4.652;2023-11-19T13:53:26;29.60;;;27.08;;
34836;SDS011;21053;50.848;4.652;2023-11-19T13:55:54;33.28;;;29.77;;
34836;SDS011;21053;50.848;4.652;2023-11-19T13:58:20;35.67;;;30.98;;
34836;SDS011;21053;50.848;4.652;2023-11-19T14:00:46;33.60;;;31.10;;
34836;SDS011;21053;50.848;4.652;2023-11-19T14:05:42;35.05;;;32.50;;
34836;SDS011;21053;50.848;4.652;2023-11-19T14:08:08;41.47;;;38.35;;
34836;SDS011;21053;50.848;4.652;2023-11-19T14:10:38;38.95;;;35.90;;
34836;SDS011;21053;50.848;4.652;2023-11-19T14:13:09;40.95;;;36.78;;
34836;SDS011;21053;50.848;4.652;2023-11-19T14:15:36;43.40;;;40.17;;
34836;SDS011;21053;50.848;4.652;2023-11-19T14:20:33;40.53;;;37.45;;
34836;SDS011;21053;50.848;4.652;2023-11-19T14:22:59;53.13;;;49.05;;
34836;SDS011;21053;50.848;4.652;2023-11-19T14:25:28;68.20;;;62.30;;
34836;SDS011;21053;50.848;4.652;2023-11-19T14:29:34;72.03;;;66.05;;
34836;SDS011;21053;50.848;4.652;2023-11-19T14:32:03;63.45;;;58.35;;
34836;SDS011;21053;50.848;4.652;2023-11-19T14:34:35;63.42;;;58.55;;
34836;SDS011;21053;50.848;4.652;2023-11-19T14:39:30;67.55;;;62.13;;
34836;SDS011;21053;50.848;4.652;2023-11-19T14:41:58;72.13;;;66.40;;
34836;SDS011;21053;50.848;4.652;2023-11-19T14:44:26;86.80;;;78.15;;
34836;SDS011;21053;50.848;4.652;2023-11-19T14:46:52;97.15;;;89.40;;
34836;SDS011;21053;50.848;4.652;2023-11-19T14:49:20;89.70;;;82.30;;
34836;SDS011;21053;50.848;4.652;2023-11-19T14:51:49;89.22;;;81.85;;
34836;SDS011;21053;50.848;4.652;2023-11-19T14:54:16;96.57;;;88.82;;
34836;SDS011;21053;50.848;4.652;2023-11-19T14:59:21;98.97;;;91.07;;
34836;SDS011;21053;50.848;4.652;2023-11-19T15:01:47;97.93;;;90.20;;
34836;SDS011;21053;50.848;4.652;2023-11-19T15:04:14;98.18;;;89.47;;
34836;SDS011;21053;50.848;4.652;2023-11-19T15:06:44;89.53;;;82.45;;
34836;SDS011;21053;50.848;4.652;2023-11-19T15:09:09;99.95;;;92.15;;
34836;SDS011;21053;50.848;4.652;2023-11-19T15:14:12;98.82;;;89.97;;
34836;SDS011;21053;50.848;4.652;2023-11-19T15:16:50;102.72;;;93.63;;
34836;SDS011;21053;50.848;4.652;2023-11-19T15:19:17;103.30;;;95.00;;
34836;SDS011;21053;50.848;4.652;2023-11-19T15:21:45;109.30;;;100.47;;
34836;SDS011;21053;50.848;4.652;2023-11-19T15:24:11;114.82;;;105.13;;
34836;SDS011;21053;50.848;4.652;2023-11-19T15:26:38;96.72;;;88.97;;
34836;SDS011;21053;50.848;4.652;2023-11-19T15:29:04;104.90;;;96.28;;
34836;SDS011;21053;50.848;4.652;2023-11-19T15:31:32;100.40;;;91.05;;
34836;SDS011;21053;50.848;4.652;2023-11-19T15:33:58;95.30;;;87.97;;
34836;SDS011;21053;50.848;4.652;2023-11-19T15:36:24;102.72;;;94.38;;
34836;SDS011;21053;50.848;4.652;2023-11-19T15:38:53;93.82;;;86.18;;
34836;SDS011;21053;50.848;4.652;2023-11-19T15:43:48;92.57;;;84.90;;
34836;SDS011;21053;50.848;4.652;2023-11-19T15:46:13;86.15;;;79.45;;
34836;SDS011;21053;50.848;4.652;2023-11-19T15:48:42;90.80;;;83.15;;
34836;SDS011;21053;50.848;4.652;2023-11-19T15:51:09;88.13;;;81.43;;
34836;SDS011;21053;50.848;4.652;2023-11-19T15:56:04;66.28;;;54.35;;
34836;SDS011;21053;50.848;4.652;2023-11-19T15:58:32;52.05;;;47.30;;
34836;SDS011;21053;50.848;4.652;2023-11-19T16:01:01;118.72;;;107.38;;
34836;SDS011;21053;50.848;4.652;2023-11-19T16:03:28;171.23;;;156.52;;
34836;SDS011;21053;50.848;4.652;2023-11-19T16:05:58;212.30;;;193.93;;
34836;SDS011;21053;50.848;4.652;2023-11-19T16:08:23;271.05;;;246.85;;
34836;SDS011;21053;50.848;4.652;2023-11-19T16:10:51;280.70;;;255.82;;
34836;SDS011;21053;50.848;4.652;2023-11-19T16:13:18;305.88;;;278.67;;
34836;SDS011;21053;50.848;4.652;2023-11-19T16:15:46;304.55;;;276.55;;
34836;SDS011;21053;50.848;4.652;2023-11-19T16:18:12;281.13;;;255.85;;
34836;SDS011;21053;50.848;4.652;2023-11-19T16:20:39;297.05;;;270.67;;
34836;SDS011;21053;50.848;4.652;2023-11-19T16:23:09;251.70;;;228.05;;
34836;SDS011;21053;50.848;4.652;2023-11-19T16:25:38;281.38;;;255.68;;
34836;SDS011;21053;50.848;4.652;2023-11-19T16:28:04;283.45;;;258.20;;
34836;SDS011;21053;50.848;4.652;2023-11-19T16:30:32;241.75;;;220.68;;
34836;SDS011;21053;50.848;4.652;2023-11-19T16:35:28;212.07;;;192.77;;
34836;SDS011;21053;50.848;4.652;2023-11-19T16:38:00;203.57;;;185.68;;
34836;SDS011;21053;50.848;4.652;2023-11-19T16:43:00;134.00;;;122.72;;
34836;SDS011;21053;50.848;4.652;2023-11-19T16:45:26;138.45;;;127.22;;
34836;SDS011;21053;50.848;4.652;2023-11-19T16:47:53;146.23;;;134.43;;
34836;SDS011;21053;50.848;4.652;2023-11-19T16:50:18;150.02;;;136.02;;
34836;SDS011;21053;50.848;4.652;2023-11-19T16:52:45;170.48;;;155.50;;
34836;SDS011;21053;50.848;4.652;2023-11-19T16:55:14;172.48;;;157.90;;
34836;SDS011;21053;50.848;4.652;2023-11-19T16:57:41;216.88;;;197.23;;
34836;SDS011;21053;50.848;4.652;2023-11-19T17:00:15;197.85;;;181.15;;
34836;SDS011;21053;50.848;4.652;2023-11-19T17:02:44;232.70;;;210.93;;
34836;SDS011;21053;50.848;4.652;2023-11-19T17:05:12;239.48;;;218.07;;
34836;SDS011;21053;50.848;4.652;2023-11-19T17:07:39;255.15;;;232.63;;
34836;SDS011;21053;50.848;4.652;2023-11-19T17:12:38;291.17;;;265.05;;